sensor_id;sensor_type;location;lat;lon;timestamp;P1;durP1;ratioP1;P2;durP2;ratioP2
2570;SDS011;1295;51.130;6.732;2023-05-14T00:00:59;65.43;;;15.33;;
2570;SDS011;1295;51.130;6.732;2023-05-14T00:03:24;64.80;;;14.80;;
2570;SDS011;1295;51.130;6.732;2023-05-14T00:05:50;65.30;;;15.20;;
2570;SDS011;1295;51.130;6.732;2023-05-14T00:08:16;64.27;;;14.80;;
2570;SDS011;1295;51.130;6.732;2023-05-14T00:10:41;71.73;;;16.73;;
2570;SDS011;1295;51.130;6.732;2023-05-14T00:13:07;66.30;;;15.17;;
2570;SDS011;1295;51.130;6.732;2023-05-14T00:15:33;68.00;;;16.07;;
2570;SDS011;1295;51.130;6.732;2023-05-14T00:17:58;68.20;;;16.10;;
2570;SDS011;1295;51.130;6.732;2023-05-14T00:20:24;70.90;;;18.43;;
2570;SDS011;1295;51.130;6.732;2023-05-14T00:22:49;68.60;;;17.00;;
2570;SDS011;1295;51.130;6.732;2023-05-14T00:25:15;67.87;;;17.47;;
2570;SDS011;1295;51.130;6.732;2023-05-14T00:27:41;67.03;;;16.40;;
2570;SDS011;1295;51.130;6.732;2023-05-14T00:30:07;73.40;;;16.97;;
2570;SDS011;1295;51.130;6.732;2023-05-14T00:32:33;66.13;;;16.60;;
2570;SDS011;1295;51.130;6.732;2023-05-14T00:34:59;64.50;;;15.90;;
2570;SDS011;1295;51.130;6.732;2023-05-14T00:37:25;67.07;;;15.33;;
2570;SDS011;1295;51.130;6.732;2023-05-14T00:39:50;68.23;;;16.60;;
2570;SDS011;1295;51.130;6.732;2023-05-14T00:42:16;64.83;;;15.20;;
2570;SDS011;1295;51.130;6.732;2023-05-14T00:44:41;67.50;;;15.00;;
2570;SDS011;1295;51.130;6.732;2023-05-14T00:47:07;65.50;;;14.57;;
2570;SDS011;1295;51.130;6.732;2023-05-14T00:49:33;66.73;;;14.93;;
2570;SDS011;1295;51.130;6.732;2023-05-14T00:51:58;66.57;;;15.00;;
2570;SDS011;1295;51.130;6.732;2023-05-14T00:54:24;67.17;;;16.00;;
2570;SDS011;1295;51.130;6.732;2023-05-14T00:56:50;67.10;;;15.80;;
2570;SDS011;1295;51.130;6.732;2023-05-14T00:59:15;69.20;;;15.70;;
2570;SDS011;1295;51.130;6.732;2023-05-14T01:01:41;65.67;;;16.07;;
2570;SDS011;1295;51.130;6.732;2023-05-14T01:04:07;69.90;;;14.63;;
2570;SDS011;1295;51.130;6.732;2023-05-14T01:06:43;63.90;;;13.43;;
2570;SDS011;1295;51.130;6.732;2023-05-14T01:09:08;66.13;;;15.37;;
2570;SDS011;1295;51.130;6.732;2023-05-14T01:11:43;65.87;;;15.70;;
2570;SDS011;1295;51.130;6.732;2023-05-14T01:14:12;66.40;;;14.63;;
2570;SDS011;1295;51.130;6.732;2023-05-14T01:16:34;63.90;;;14.40;;
2570;SDS011;1295;51.130;6.732;2023-05-14T01:18:59;65.50;;;13.67;;
2570;SDS011;1295;51.130;6.732;2023-05-14T01:23:57;70.07;;;15.70;;
2570;SDS011;1295;51.130;6.732;2023-05-14T01:26:23;70.03;;;16.97;;
2570;SDS011;1295;51.130;6.732;2023-05-14T01:28:48;68.20;;;14.90;;
2570;SDS011;1295;51.130;6.732;2023-05-14T01:31:16;71.37;;;15.67;;
2570;SDS011;1295;51.130;6.732;2023-05-14T01:33:40;69.90;;;17.20;;
2570;SDS011;1295;51.130;6.732;2023-05-14T01:36:05;70.37;;;16.13;;
2570;SDS011;1295;51.130;6.732;2023-05-14T01:38:31;66.37;;;15.93;;
2570;SDS011;1295;51.130;6.732;2023-05-14T01:40:56;69.13;;;18.17;;
2570;SDS011;1295;51.130;6.732;2023-05-14T01:43:23;66.87;;;17.13;;
2570;SDS011;1295;51.130;6.732;2023-05-14T01:45:49;67.77;;;16.97;;
2570;SDS011;1295;51.130;6.732;2023-05-14T01:48:14;78.00;;;19.20;;
2570;SDS011;1295;51.130;6.732;2023-05-14T01:50:41;68.77;;;17.27;;
2570;SDS011;1295;51.130;6.732;2023-05-14T01:53:06;72.40;;;17.63;;
2570;SDS011;1295;51.130;6.732;2023-05-14T01:55:32;69.47;;;17.40;;
2570;SDS011;1295;51.130;6.732;2023-05-14T01:57:57;76.13;;;19.03;;
2570;SDS011;1295;51.130;6.732;2023-05-14T02:00:23;70.17;;;17.60;;
2570;SDS011;1295;51.130;6.732;2023-05-14T02:02:50;66.57;;;16.17;;
2570;SDS011;1295;51.130;6.732;2023-05-14T02:05:15;70.83;;;15.53;;
2570;SDS011;1295;51.130;6.732;2023-05-14T02:07:42;65.73;;;16.13;;
2570;SDS011;1295;51.130;6.732;2023-05-14T02:10:08;66.27;;;16.53;;
2570;SDS011;1295;51.130;6.732;2023-05-14T02:12:34;70.60;;;16.43;;
2570;SDS011;1295;51.130;6.732;2023-05-14T02:14:59;71.83;;;16.83;;
2570;SDS011;1295;51.130;6.732;2023-05-14T02:17:26;67.87;;;16.43;;
2570;SDS011;1295;51.130;6.732;2023-05-14T02:19:51;65.20;;;14.80;;
2570;SDS011;1295;51.130;6.732;2023-05-14T02:22:17;67.80;;;16.87;;
2570;SDS011;1295;51.130;6.732;2023-05-14T02:24:43;67.17;;;15.80;;
2570;SDS011;1295;51.130;6.732;2023-05-14T02:27:08;68.43;;;17.50;;
2570;SDS011;1295;51.130;6.732;2023-05-14T02:29:34;67.37;;;16.90;;
2570;SDS011;1295;51.130;6.732;2023-05-14T02:32:00;68.30;;;16.50;;
2570;SDS011;1295;51.130;6.732;2023-05-14T02:34:25;68.00;;;15.30;;
2570;SDS011;1295;51.130;6.732;2023-05-14T02:36:51;64.70;;;15.80;;
2570;SDS011;1295;51.130;6.732;2023-05-14T02:39:16;68.70;;;17.70;;
2570;SDS011;1295;51.130;6.732;2023-05-14T02:41:42;68.77;;;20.93;;
2570;SDS011;1295;51.130;6.732;2023-05-14T02:44:08;67.30;;;17.70;;
2570;SDS011;1295;51.130;6.732;2023-05-14T02:46:33;67.77;;;20.27;;
2570;SDS011;1295;51.130;6.732;2023-05-14T02:48:59;68.30;;;19.63;;
2570;SDS011;1295;51.130;6.732;2023-05-14T02:51:25;70.00;;;22.30;;
2570;SDS011;1295;51.130;6.732;2023-05-14T02:53:50;70.93;;;23.50;;
2570;SDS011;1295;51.130;6.732;2023-05-14T02:56:16;76.47;;;24.73;;
2570;SDS011;1295;51.130;6.732;2023-05-14T02:58:41;69.30;;;22.60;;
2570;SDS011;1295;51.130;6.732;2023-05-14T03:01:07;73.33;;;24.70;;
2570;SDS011;1295;51.130;6.732;2023-05-14T03:03:34;68.90;;;26.10;;
2570;SDS011;1295;51.130;6.732;2023-05-14T03:05:59;74.10;;;24.37;;
2570;SDS011;1295;51.130;6.732;2023-05-14T03:08:25;70.57;;;25.13;;
2570;SDS011;1295;51.130;6.732;2023-05-14T03:10:50;70.10;;;25.50;;
2570;SDS011;1295;51.130;6.732;2023-05-14T03:13:16;70.50;;;25.93;;
2570;SDS011;1295;51.130;6.732;2023-05-14T03:15:42;73.30;;;27.27;;
2570;SDS011;1295;51.130;6.732;2023-05-14T03:18:07;72.20;;;24.60;;
2570;SDS011;1295;51.130;6.732;2023-05-14T03:20:34;71.13;;;24.23;;
2570;SDS011;1295;51.130;6.732;2023-05-14T03:22:59;72.50;;;26.47;;
2570;SDS011;1295;51.130;6.732;2023-05-14T03:25:25;70.57;;;26.23;;
2570;SDS011;1295;51.130;6.732;2023-05-14T03:27:51;71.13;;;27.20;;
2570;SDS011;1295;51.130;6.732;2023-05-14T03:30:16;72.23;;;24.87;;
2570;SDS011;1295;51.130;6.732;2023-05-14T03:32:42;69.50;;;20.97;;
2570;SDS011;1295;51.130;6.732;2023-05-14T03:35:07;68.80;;;19.73;;
2570;SDS011;1295;51.130;6.732;2023-05-14T03:37:33;76.03;;;23.93;;
2570;SDS011;1295;51.130;6.732;2023-05-14T03:39:59;75.23;;;23.33;;
2570;SDS011;1295;51.130;6.732;2023-05-14T03:42:24;68.10;;;16.93;;
2570;SDS011;1295;51.130;6.732;2023-05-14T03:44:50;71.60;;;25.30;;
2570;SDS011;1295;51.130;6.732;2023-05-14T03:47:16;71.37;;;27.60;;
2570;SDS011;1295;51.130;6.732;2023-05-14T03:49:41;71.30;;;26.80;;
2570;SDS011;1295;51.130;6.732;2023-05-14T03:52:07;76.40;;;22.00;;
2570;SDS011;1295;51.130;6.732;2023-05-14T03:54:32;71.20;;;27.50;;
2570;SDS011;1295;51.130;6.732;2023-05-14T03:56:59;77.47;;;26.80;;
2570;SDS011;1295;51.130;6.732;2023-05-14T03:59:24;71.10;;;20.37;;
2570;SDS011;1295;51.130;6.732;2023-05-14T04:01:51;70.67;;;16.13;;
2570;SDS011;1295;51.130;6.732;2023-05-14T04:04:16;73.07;;;19.67;;
2570;SDS011;1295;51.130;6.732;2023-05-14T04:06:42;72.50;;;29.83;;
2570;SDS011;1295;51.130;6.732;2023-05-14T04:09:08;70.30;;;20.70;;
2570;SDS011;1295;51.130;6.732;2023-05-14T04:11:33;67.87;;;21.70;;
2570;SDS011;1295;51.130;6.732;2023-05-14T04:13:59;74.67;;;26.03;;
2570;SDS011;1295;51.130;6.732;2023-05-14T04:16:25;74.13;;;26.53;;
2570;SDS011;1295;51.130;6.732;2023-05-14T04:18:50;67.07;;;18.57;;
2570;SDS011;1295;51.130;6.732;2023-05-14T04:21:17;70.77;;;25.80;;
2570;SDS011;1295;51.130;6.732;2023-05-14T04:23:42;72.60;;;26.27;;
2570;SDS011;1295;51.130;6.732;2023-05-14T04:26:08;69.83;;;18.77;;
2570;SDS011;1295;51.130;6.732;2023-05-14T04:28:33;79.33;;;22.93;;
2570;SDS011;1295;51.130;6.732;2023-05-14T04:30:59;71.77;;;22.57;;
2570;SDS011;1295;51.130;6.732;2023-05-14T04:33:25;68.83;;;19.33;;
2570;SDS011;1295;51.130;6.732;2023-05-14T04:35:51;72.60;;;27.33;;
2570;SDS011;1295;51.130;6.732;2023-05-14T04:38:16;68.30;;;19.73;;
2570;SDS011;1295;51.130;6.732;2023-05-14T04:40:42;74.73;;;23.77;;
2570;SDS011;1295;51.130;6.732;2023-05-14T04:43:08;68.57;;;19.30;;
2570;SDS011;1295;51.130;6.732;2023-05-14T04:45:34;65.77;;;15.00;;
2570;SDS011;1295;51.130;6.732;2023-05-14T04:47:59;68.33;;;14.10;;
2570;SDS011;1295;51.130;6.732;2023-05-14T04:50:26;65.60;;;14.40;;
2570;SDS011;1295;51.130;6.732;2023-05-14T04:52:52;66.47;;;14.80;;
2570;SDS011;1295;51.130;6.732;2023-05-14T04:55:18;65.90;;;14.27;;
2570;SDS011;1295;51.130;6.732;2023-05-14T04:57:43;70.23;;;15.50;;
2570;SDS011;1295;51.130;6.732;2023-05-14T05:00:09;74.57;;;20.77;;
2570;SDS011;1295;51.130;6.732;2023-05-14T05:02:35;77.07;;;21.70;;
2570;SDS011;1295;51.130;6.732;2023-05-14T05:05:01;75.83;;;19.13;;
2570;SDS011;1295;51.130;6.732;2023-05-14T05:07:27;75.73;;;19.40;;
2570;SDS011;1295;51.130;6.732;2023-05-14T05:09:52;74.63;;;19.47;;
2570;SDS011;1295;51.130;6.732;2023-05-14T05:12:18;77.67;;;19.73;;
2570;SDS011;1295;51.130;6.732;2023-05-14T05:14:44;88.13;;;20.63;;
2570;SDS011;1295;51.130;6.732;2023-05-14T05:17:10;79.67;;;19.87;;
2570;SDS011;1295;51.130;6.732;2023-05-14T05:19:36;76.60;;;21.67;;
2570;SDS011;1295;51.130;6.732;2023-05-14T05:22:02;74.50;;;20.10;;
2570;SDS011;1295;51.130;6.732;2023-05-14T05:24:28;77.93;;;22.07;;
2570;SDS011;1295;51.130;6.732;2023-05-14T05:26:54;69.97;;;17.70;;
2570;SDS011;1295;51.130;6.732;2023-05-14T05:29:30;74.27;;;19.57;;
2570;SDS011;1295;51.130;6.732;2023-05-14T05:31:56;72.90;;;20.60;;
2570;SDS011;1295;51.130;6.732;2023-05-14T05:34:22;74.13;;;20.10;;
2570;SDS011;1295;51.130;6.732;2023-05-14T05:36:47;69.30;;;18.60;;
2570;SDS011;1295;51.130;6.732;2023-05-14T05:39:14;75.23;;;22.00;;
2570;SDS011;1295;51.130;6.732;2023-05-14T05:41:39;74.83;;;19.87;;
2570;SDS011;1295;51.130;6.732;2023-05-14T05:44:05;75.80;;;21.40;;
2570;SDS011;1295;51.130;6.732;2023-05-14T05:46:31;80.07;;;23.20;;
2570;SDS011;1295;51.130;6.732;2023-05-14T05:48:56;77.13;;;22.37;;
2570;SDS011;1295;51.130;6.732;2023-05-14T05:51:22;79.20;;;23.23;;
2570;SDS011;1295;51.130;6.732;2023-05-14T05:53:48;73.63;;;20.53;;
2570;SDS011;1295;51.130;6.732;2023-05-14T05:56:15;76.93;;;23.10;;
2570;SDS011;1295;51.130;6.732;2023-05-14T05:58:40;73.23;;;20.93;;
2570;SDS011;1295;51.130;6.732;2023-05-14T06:01:06;73.17;;;19.93;;
2570;SDS011;1295;51.130;6.732;2023-05-14T06:03:32;78.50;;;25.13;;
2570;SDS011;1295;51.130;6.732;2023-05-14T06:05:57;79.70;;;24.23;;
2570;SDS011;1295;51.130;6.732;2023-05-14T06:08:23;81.27;;;25.20;;
2570;SDS011;1295;51.130;6.732;2023-05-14T06:10:48;79.70;;;25.70;;
2570;SDS011;1295;51.130;6.732;2023-05-14T06:13:14;71.83;;;19.63;;
2570;SDS011;1295;51.130;6.732;2023-05-14T06:15:40;78.40;;;24.90;;
2570;SDS011;1295;51.130;6.732;2023-05-14T06:18:05;74.30;;;23.37;;
2570;SDS011;1295;51.130;6.732;2023-05-14T06:20:31;79.03;;;27.70;;
2570;SDS011;1295;51.130;6.732;2023-05-14T06:22:57;80.30;;;29.17;;
2570;SDS011;1295;51.130;6.732;2023-05-14T06:25:23;81.63;;;26.83;;
2570;SDS011;1295;51.130;6.732;2023-05-14T06:27:48;72.87;;;22.07;;
2570;SDS011;1295;51.130;6.732;2023-05-14T06:30:14;85.50;;;36.33;;
2570;SDS011;1295;51.130;6.732;2023-05-14T06:32:40;75.70;;;23.87;;
2570;SDS011;1295;51.130;6.732;2023-05-14T06:35:06;76.23;;;23.73;;
2570;SDS011;1295;51.130;6.732;2023-05-14T06:37:33;86.43;;;30.77;;
2570;SDS011;1295;51.130;6.732;2023-05-14T06:39:59;77.57;;;23.43;;
2570;SDS011;1295;51.130;6.732;2023-05-14T06:45:16;80.57;;;30.97;;
2570;SDS011;1295;51.130;6.732;2023-05-14T06:47:43;76.67;;;27.00;;
2570;SDS011;1295;51.130;6.732;2023-05-14T06:50:09;77.57;;;22.43;;
2570;SDS011;1295;51.130;6.732;2023-05-14T06:52:36;92.50;;;35.40;;
2570;SDS011;1295;51.130;6.732;2023-05-14T06:55:02;97.47;;;30.47;;
2570;SDS011;1295;51.130;6.732;2023-05-14T06:57:28;83.43;;;29.33;;
2570;SDS011;1295;51.130;6.732;2023-05-14T06:59:54;89.97;;;37.00;;
2570;SDS011;1295;51.130;6.732;2023-05-14T07:02:20;78.05;;;29.63;;
2570;SDS011;1295;51.130;6.732;2023-05-14T07:04:46;72.33;;;29.70;;
2570;SDS011;1295;51.130;6.732;2023-05-14T07:07:11;82.67;;;29.03;;
2570;SDS011;1295;51.130;6.732;2023-05-14T07:09:38;90.10;;;40.73;;
2570;SDS011;1295;51.130;6.732;2023-05-14T07:12:04;89.17;;;33.60;;
2570;SDS011;1295;51.130;6.732;2023-05-14T07:14:30;85.53;;;32.53;;
2570;SDS011;1295;51.130;6.732;2023-05-14T07:16:57;96.60;;;34.60;;
2570;SDS011;1295;51.130;6.732;2023-05-14T07:19:23;100.17;;;51.43;;
2570;SDS011;1295;51.130;6.732;2023-05-14T07:21:49;92.63;;;39.60;;
2570;SDS011;1295;51.130;6.732;2023-05-14T07:24:15;84.57;;;25.67;;
2570;SDS011;1295;51.130;6.732;2023-05-14T07:26:41;91.30;;;37.57;;
2570;SDS011;1295;51.130;6.732;2023-05-14T07:29:07;87.40;;;34.27;;
2570;SDS011;1295;51.130;6.732;2023-05-14T07:31:32;93.77;;;35.67;;
2570;SDS011;1295;51.130;6.732;2023-05-14T07:33:58;91.70;;;36.90;;
2570;SDS011;1295;51.130;6.732;2023-05-14T07:36:24;75.60;;;22.97;;
2570;SDS011;1295;51.130;6.732;2023-05-14T07:38:50;79.53;;;25.03;;
2570;SDS011;1295;51.130;6.732;2023-05-14T07:41:15;75.47;;;21.63;;
2570;SDS011;1295;51.130;6.732;2023-05-14T07:43:42;97.10;;;31.07;;
2570;SDS011;1295;51.130;6.732;2023-05-14T07:46:07;83.47;;;33.77;;
2570;SDS011;1295;51.130;6.732;2023-05-14T07:48:33;74.90;;;27.00;;
2570;SDS011;1295;51.130;6.732;2023-05-14T07:50:59;79.70;;;26.83;;
2570;SDS011;1295;51.130;6.732;2023-05-14T07:53:25;77.97;;;27.63;;
2570;SDS011;1295;51.130;6.732;2023-05-14T07:56:07;78.40;;;36.70;;
2570;SDS011;1295;51.130;6.732;2023-05-14T07:58:32;80.47;;;32.83;;
2570;SDS011;1295;51.130;6.732;2023-05-14T08:00:59;72.97;;;20.03;;
2570;SDS011;1295;51.130;6.732;2023-05-14T08:03:24;90.97;;;42.40;;
2570;SDS011;1295;51.130;6.732;2023-05-14T08:05:50;73.87;;;20.60;;
2570;SDS011;1295;51.130;6.732;2023-05-14T08:08:16;87.20;;;33.93;;
2570;SDS011;1295;51.130;6.732;2023-05-14T08:10:41;81.27;;;24.77;;
2570;SDS011;1295;51.130;6.732;2023-05-14T08:13:07;74.67;;;21.90;;
2570;SDS011;1295;51.130;6.732;2023-05-14T08:15:33;94.67;;;74.43;;
2570;SDS011;1295;51.130;6.732;2023-05-14T08:17:58;77.90;;;38.80;;
2570;SDS011;1295;51.130;6.732;2023-05-14T08:20:24;75.30;;;25.73;;
2570;SDS011;1295;51.130;6.732;2023-05-14T08:22:50;73.13;;;23.97;;
2570;SDS011;1295;51.130;6.732;2023-05-14T08:25:15;66.50;;;15.77;;
2570;SDS011;1295;51.130;6.732;2023-05-14T08:27:41;96.87;;;67.77;;
2570;SDS011;1295;51.130;6.732;2023-05-14T08:30:07;94.37;;;60.57;;
2570;SDS011;1295;51.130;6.732;2023-05-14T08:32:33;81.40;;;47.37;;
2570;SDS011;1295;51.130;6.732;2023-05-14T08:34:59;100.57;;;68.33;;
2570;SDS011;1295;51.130;6.732;2023-05-14T08:37:24;96.50;;;49.53;;
2570;SDS011;1295;51.130;6.732;2023-05-14T08:39:50;94.27;;;51.03;;
2570;SDS011;1295;51.130;6.732;2023-05-14T08:42:17;72.20;;;25.27;;
2570;SDS011;1295;51.130;6.732;2023-05-14T08:44:46;71.67;;;21.70;;
2570;SDS011;1295;51.130;6.732;2023-05-14T08:47:10;76.23;;;21.27;;
2570;SDS011;1295;51.130;6.732;2023-05-14T08:49:41;71.00;;;26.80;;
2570;SDS011;1295;51.130;6.732;2023-05-14T08:52:06;98.67;;;87.97;;
2570;SDS011;1295;51.130;6.732;2023-05-14T08:54:32;74.33;;;32.93;;
2570;SDS011;1295;51.130;6.732;2023-05-14T08:56:58;69.23;;;20.87;;
2570;SDS011;1295;51.130;6.732;2023-05-14T08:59:23;89.03;;;33.47;;
2570;SDS011;1295;51.130;6.732;2023-05-14T09:01:51;86.80;;;37.77;;
2570;SDS011;1295;51.130;6.732;2023-05-14T09:04:15;77.27;;;32.40;;
2570;SDS011;1295;51.130;6.732;2023-05-14T09:06:40;77.33;;;29.73;;
2570;SDS011;1295;51.130;6.732;2023-05-14T09:09:06;78.70;;;22.30;;
2570;SDS011;1295;51.130;6.732;2023-05-14T09:11:32;82.00;;;27.43;;
2570;SDS011;1295;51.130;6.732;2023-05-14T09:13:57;73.80;;;27.40;;
2570;SDS011;1295;51.130;6.732;2023-05-14T09:16:23;83.20;;;39.03;;
2570;SDS011;1295;51.130;6.732;2023-05-14T09:18:48;78.53;;;39.27;;
2570;SDS011;1295;51.130;6.732;2023-05-14T09:21:14;73.37;;;20.60;;
2570;SDS011;1295;51.130;6.732;2023-05-14T09:23:41;81.97;;;28.60;;
2570;SDS011;1295;51.130;6.732;2023-05-14T09:26:06;84.47;;;28.83;;
2570;SDS011;1295;51.130;6.732;2023-05-14T09:28:32;82.30;;;25.07;;
2570;SDS011;1295;51.130;6.732;2023-05-14T09:30:57;79.70;;;28.60;;
2570;SDS011;1295;51.130;6.732;2023-05-14T09:33:24;79.50;;;27.70;;
2570;SDS011;1295;51.130;6.732;2023-05-14T09:35:49;76.60;;;25.37;;
2570;SDS011;1295;51.130;6.732;2023-05-14T09:38:16;76.00;;;27.00;;
2570;SDS011;1295;51.130;6.732;2023-05-14T09:40:41;77.73;;;31.83;;
2570;SDS011;1295;51.130;6.732;2023-05-14T09:43:07;78.90;;;29.87;;
2570;SDS011;1295;51.130;6.732;2023-05-14T09:45:33;78.60;;;26.50;;
2570;SDS011;1295;51.130;6.732;2023-05-14T09:47:59;78.57;;;26.83;;
2570;SDS011;1295;51.130;6.732;2023-05-14T09:50:25;75.40;;;29.30;;
2570;SDS011;1295;51.130;6.732;2023-05-14T09:52:50;76.10;;;28.73;;
2570;SDS011;1295;51.130;6.732;2023-05-14T09:55:16;79.00;;;20.97;;
2570;SDS011;1295;51.130;6.732;2023-05-14T09:57:42;81.83;;;29.10;;
2570;SDS011;1295;51.130;6.732;2023-05-14T10:00:08;80.07;;;32.40;;
2570;SDS011;1295;51.130;6.732;2023-05-14T10:02:35;80.57;;;27.00;;
2570;SDS011;1295;51.130;6.732;2023-05-14T10:05:01;77.37;;;30.20;;
2570;SDS011;1295;51.130;6.732;2023-05-14T10:07:28;70.60;;;20.73;;
2570;SDS011;1295;51.130;6.732;2023-05-14T10:09:56;72.77;;;18.40;;
2570;SDS011;1295;51.130;6.732;2023-05-14T10:12:20;84.20;;;24.23;;
2570;SDS011;1295;51.130;6.732;2023-05-14T10:14:46;69.77;;;21.40;;
2570;SDS011;1295;51.130;6.732;2023-05-14T10:17:10;74.57;;;16.97;;
2570;SDS011;1295;51.130;6.732;2023-05-14T10:19:36;72.83;;;21.10;;
2570;SDS011;1295;51.130;6.732;2023-05-14T10:22:03;69.80;;;17.03;;
2570;SDS011;1295;51.130;6.732;2023-05-14T10:24:29;68.00;;;21.67;;
2570;SDS011;1295;51.130;6.732;2023-05-14T10:26:55;69.90;;;18.13;;
2570;SDS011;1295;51.130;6.732;2023-05-14T10:29:30;69.27;;;19.63;;
2570;SDS011;1295;51.130;6.732;2023-05-14T10:31:48;70.23;;;18.47;;
2570;SDS011;1295;51.130;6.732;2023-05-14T10:36:51;67.00;;;17.27;;
2570;SDS011;1295;51.130;6.732;2023-05-14T10:39:16;69.87;;;16.97;;
2570;SDS011;1295;51.130;6.732;2023-05-14T10:41:43;72.17;;;19.40;;
2570;SDS011;1295;51.130;6.732;2023-05-14T10:44:08;70.30;;;17.70;;
2570;SDS011;1295;51.130;6.732;2023-05-14T10:46:34;68.53;;;19.50;;
2570;SDS011;1295;51.130;6.732;2023-05-14T10:49:00;67.90;;;17.90;;
2570;SDS011;1295;51.130;6.732;2023-05-14T10:51:25;66.50;;;15.77;;
2570;SDS011;1295;51.130;6.732;2023-05-14T10:53:51;66.50;;;17.03;;
2570;SDS011;1295;51.130;6.732;2023-05-14T10:56:17;71.30;;;18.73;;
2570;SDS011;1295;51.130;6.732;2023-05-14T10:58:43;67.73;;;15.60;;
2570;SDS011;1295;51.130;6.732;2023-05-14T11:01:09;64.80;;;15.67;;
2570;SDS011;1295;51.130;6.732;2023-05-14T11:03:38;67.63;;;22.27;;
2570;SDS011;1295;51.130;6.732;2023-05-14T11:06:05;68.37;;;24.73;;
2570;SDS011;1295;51.130;6.732;2023-05-14T11:08:31;64.17;;;14.23;;
2570;SDS011;1295;51.130;6.732;2023-05-14T11:10:57;67.77;;;18.13;;
2570;SDS011;1295;51.130;6.732;2023-05-14T11:13:24;68.60;;;20.37;;
2570;SDS011;1295;51.130;6.732;2023-05-14T11:15:49;69.77;;;22.77;;
2570;SDS011;1295;51.130;6.732;2023-05-14T11:18:25;69.07;;;25.43;;
2570;SDS011;1295;51.130;6.732;2023-05-14T11:20:51;63.53;;;16.40;;
2570;SDS011;1295;51.130;6.732;2023-05-14T11:23:16;66.23;;;17.90;;
2570;SDS011;1295;51.130;6.732;2023-05-14T11:25:42;68.60;;;17.10;;
2570;SDS011;1295;51.130;6.732;2023-05-14T11:28:08;65.80;;;19.33;;
2570;SDS011;1295;51.130;6.732;2023-05-14T11:30:34;67.10;;;20.30;;
2570;SDS011;1295;51.130;6.732;2023-05-14T11:33:00;66.17;;;21.63;;
2570;SDS011;1295;51.130;6.732;2023-05-14T11:35:25;66.17;;;17.60;;
2570;SDS011;1295;51.130;6.732;2023-05-14T11:37:56;65.13;;;19.80;;
2570;SDS011;1295;51.130;6.732;2023-05-14T11:40:22;67.60;;;18.00;;
2570;SDS011;1295;51.130;6.732;2023-05-14T11:42:49;61.10;;;16.83;;
2570;SDS011;1295;51.130;6.732;2023-05-14T11:45:22;71.53;;;21.27;;
2570;SDS011;1295;51.130;6.732;2023-05-14T11:47:40;65.23;;;17.60;;
2570;SDS011;1295;51.130;6.732;2023-05-14T11:50:06;64.70;;;11.80;;
2570;SDS011;1295;51.130;6.732;2023-05-14T11:52:36;64.57;;;11.20;;
2570;SDS011;1295;51.130;6.732;2023-05-14T11:55:01;61.53;;;10.07;;
2570;SDS011;1295;51.130;6.732;2023-05-14T11:57:27;62.50;;;10.50;;
2570;SDS011;1295;51.130;6.732;2023-05-14T11:59:54;64.03;;;9.73;;
2570;SDS011;1295;51.130;6.732;2023-05-14T12:02:19;62.50;;;11.17;;
2570;SDS011;1295;51.130;6.732;2023-05-14T12:04:48;60.40;;;10.97;;
2570;SDS011;1295;51.130;6.732;2023-05-14T12:07:11;69.80;;;27.63;;
2570;SDS011;1295;51.130;6.732;2023-05-14T12:09:37;61.73;;;12.00;;
2570;SDS011;1295;51.130;6.732;2023-05-14T12:12:06;71.20;;;42.83;;
2570;SDS011;1295;51.130;6.732;2023-05-14T12:14:28;69.43;;;37.63;;
2570;SDS011;1295;51.130;6.732;2023-05-14T12:16:54;58.73;;;11.30;;
2570;SDS011;1295;51.130;6.732;2023-05-14T12:19:19;64.27;;;15.80;;
2570;SDS011;1295;51.130;6.732;2023-05-14T12:21:46;70.13;;;27.87;;
2570;SDS011;1295;51.130;6.732;2023-05-14T12:24:12;61.17;;;10.60;;
2570;SDS011;1295;51.130;6.732;2023-05-14T12:26:38;58.43;;;8.37;;
2570;SDS011;1295;51.130;6.732;2023-05-14T12:29:03;53.57;;;6.23;;
2570;SDS011;1295;51.130;6.732;2023-05-14T12:31:29;61.80;;;8.57;;
2570;SDS011;1295;51.130;6.732;2023-05-14T12:33:55;65.87;;;16.97;;
2570;SDS011;1295;51.130;6.732;2023-05-14T12:36:21;61.37;;;11.03;;
2570;SDS011;1295;51.130;6.732;2023-05-14T12:38:47;63.50;;;7.40;;
2570;SDS011;1295;51.130;6.732;2023-05-14T12:41:12;65.13;;;16.80;;
2570;SDS011;1295;51.130;6.732;2023-05-14T12:43:39;57.13;;;7.77;;
2570;SDS011;1295;51.130;6.732;2023-05-14T12:46:04;56.80;;;7.50;;
2570;SDS011;1295;51.130;6.732;2023-05-14T12:48:29;57.87;;;7.13;;
2570;SDS011;1295;51.130;6.732;2023-05-14T12:50:55;62.17;;;11.60;;
2570;SDS011;1295;51.130;6.732;2023-05-14T12:53:20;59.57;;;7.40;;
2570;SDS011;1295;51.130;6.732;2023-05-14T12:55:46;59.63;;;7.40;;
2570;SDS011;1295;51.130;6.732;2023-05-14T12:58:12;60.57;;;7.47;;
2570;SDS011;1295;51.130;6.732;2023-05-14T13:00:37;57.13;;;6.93;;
2570;SDS011;1295;51.130;6.732;2023-05-14T13:03:03;62.43;;;13.00;;
2570;SDS011;1295;51.130;6.732;2023-05-14T13:05:29;57.47;;;7.60;;
2570;SDS011;1295;51.130;6.732;2023-05-14T13:07:57;60.80;;;7.90;;
2570;SDS011;1295;51.130;6.732;2023-05-14T13:10:20;58.50;;;7.50;;
2570;SDS011;1295;51.130;6.732;2023-05-14T13:12:45;59.23;;;7.80;;
2570;SDS011;1295;51.130;6.732;2023-05-14T13:15:11;55.83;;;6.40;;
2570;SDS011;1295;51.130;6.732;2023-05-14T13:17:37;56.07;;;8.57;;
2570;SDS011;1295;51.130;6.732;2023-05-14T13:20:03;59.60;;;10.27;;
2570;SDS011;1295;51.130;6.732;2023-05-14T13:22:29;59.33;;;9.40;;
2570;SDS011;1295;51.130;6.732;2023-05-14T13:24:54;62.80;;;5.90;;
2570;SDS011;1295;51.130;6.732;2023-05-14T13:27:20;55.97;;;5.10;;
2570;SDS011;1295;51.130;6.732;2023-05-14T13:29:46;58.30;;;5.80;;
2570;SDS011;1295;51.130;6.732;2023-05-14T13:32:11;60.17;;;7.83;;
2570;SDS011;1295;51.130;6.732;2023-05-14T13:34:37;60.17;;;5.53;;
2570;SDS011;1295;51.130;6.732;2023-05-14T13:37:03;58.20;;;6.50;;
2570;SDS011;1295;51.130;6.732;2023-05-14T13:39:29;56.93;;;8.97;;
2570;SDS011;1295;51.130;6.732;2023-05-14T13:41:55;59.20;;;7.27;;
2570;SDS011;1295;51.130;6.732;2023-05-14T13:44:20;56.40;;;8.10;;
2570;SDS011;1295;51.130;6.732;2023-05-14T13:46:46;58.20;;;9.93;;
2570;SDS011;1295;51.130;6.732;2023-05-14T13:49:11;55.20;;;7.83;;
2570;SDS011;1295;51.130;6.732;2023-05-14T13:51:37;55.37;;;5.57;;
2570;SDS011;1295;51.130;6.732;2023-05-14T13:54:03;55.97;;;6.27;;
2570;SDS011;1295;51.130;6.732;2023-05-14T13:56:28;57.03;;;7.30;;
2570;SDS011;1295;51.130;6.732;2023-05-14T13:58:54;66.30;;;24.43;;
2570;SDS011;1295;51.130;6.732;2023-05-14T14:01:20;59.43;;;15.60;;
2570;SDS011;1295;51.130;6.732;2023-05-14T14:03:45;61.67;;;18.43;;
2570;SDS011;1295;51.130;6.732;2023-05-14T14:06:11;62.23;;;6.17;;
2570;SDS011;1295;51.130;6.732;2023-05-14T14:08:37;58.17;;;13.77;;
2570;SDS011;1295;51.130;6.732;2023-05-14T14:11:03;59.47;;;9.23;;
2570;SDS011;1295;51.130;6.732;2023-05-14T14:13:30;61.07;;;14.87;;
2570;SDS011;1295;51.130;6.732;2023-05-14T14:15:55;61.97;;;15.33;;
2570;SDS011;1295;51.130;6.732;2023-05-14T14:18:21;58.57;;;15.33;;
2570;SDS011;1295;51.130;6.732;2023-05-14T14:20:46;57.10;;;12.17;;
2570;SDS011;1295;51.130;6.732;2023-05-14T14:23:12;57.90;;;16.10;;
2570;SDS011;1295;51.130;6.732;2023-05-14T14:25:38;57.13;;;13.60;;
2570;SDS011;1295;51.130;6.732;2023-05-14T14:28:03;61.30;;;22.13;;
2570;SDS011;1295;51.130;6.732;2023-05-14T14:30:29;62.60;;;18.60;;
2570;SDS011;1295;51.130;6.732;2023-05-14T14:32:55;61.07;;;17.47;;
2570;SDS011;1295;51.130;6.732;2023-05-14T14:35:21;59.80;;;15.30;;
2570;SDS011;1295;51.130;6.732;2023-05-14T14:37:47;60.10;;;17.57;;
2570;SDS011;1295;51.130;6.732;2023-05-14T14:40:13;62.80;;;20.77;;
2570;SDS011;1295;51.130;6.732;2023-05-14T14:42:38;58.30;;;13.03;;
2570;SDS011;1295;51.130;6.732;2023-05-14T14:45:04;65.77;;;23.60;;
2570;SDS011;1295;51.130;6.732;2023-05-14T14:47:30;58.60;;;11.60;;